sensor_id;sensor_type;location;lat;lon;timestamp;pressure;altitude;pressure_sealevel;temperature;humidity
2188;BME280;1100;52.014;8.540;2024-02-16T00:00:23;99712.66;;;9.94;100.00
2188;BME280;1100;52.014;8.540;2024-02-16T00:02:48;99722.53;;;9.95;100.00
2188;BME280;1100;52.014;8.540;2024-02-16T00:05:14;99721.09;;;9.91;100.00
2188;BME280;1100;52.014;8.540;2024-02-16T00:07:39;99722.00;;;9.88;100.00
2188;BME280;1100;52.014;8.540;2024-02-16T00:10:06;99719.66;;;9.86;100.00
2188;BME280;1100;52.014;8.540;2024-02-16T00:12:32;99715.34;;;9.85;100.00
2188;BME280;1100;52.014;8.540;2024-02-16T00:14:58;99714.44;;;9.88;100.00
2188;BME280;1100;52.014;8.540;2024-02-16T00:17:24;99717.97;;;9.89;100.00
2188;BME280;1100;52.014;8.540;2024-02-16T00:19:57;99710.88;;;9.88;100.00
2188;BME280;1100;52.014;8.540;2024-02-16T00:22:23;99706.88;;;9.89;100.00
2188;BME280;1100;52.014;8.540;2024-02-16T00:24:49;99708.00;;;9.91;100.00
2188;BME280;1100;52.014;8.540;2024-02-16T00:27:15;99709.66;;;9.89;100.00
2188;BME280;1100;52.014;8.540;2024-02-16T00:29:41;99704.00;;;9.92;100.00
2188;BME280;1100;52.014;8.540;2024-02-16T00:32:07;99705.09;;;9.95;100.00
2188;BME280;1100;52.014;8.540;2024-02-16T00:34:33;99695.22;;;9.94;100.00
2188;BME280;1100;52.014;8.540;2024-02-16T00:36:59;99707.44;;;9.96;100.00
2188;BME280;1100;52.014;8.540;2024-02-16T00:39:24;99698.78;;;9.94;100.00
2188;BME280;1100;52.014;8.540;2024-02-16T00:41:50;99696.47;;;9.93;100.00
2188;BME280;1100;52.014;8.540;2024-02-16T00:44:16;99702.44;;;9.91;100.00
2188;BME280;1100;52.014;8.540;2024-02-16T00:46:41;99698.09;;;9.90;100.00
2188;BME280;1100;52.014;8.540;2024-02-16T00:49:06;99701.31;;;9.89;100.00
2188;BME280;1100;52.014;8.540;2024-02-16T00:51:32;99691.47;;;10.01;100.00
2188;BME280;1100;52.014;8.540;2024-02-16T00:53:57;99696.78;;;10.08;100.00
2188;BME280;1100;52.014;8.540;2024-02-16T00:56:23;99693.34;;;10.04;100.00
2188;BME280;1100;52.014;8.540;2024-02-16T00:58:48;99695.00;;;10.01;100.00
2188;BME280;1100;52.014;8.540;2024-02-16T01:01:14;99695.69;;;10.05;100.00
2188;BME280;1100;52.014;8.540;2024-02-16T01:03:39;99696.00;;;10.07;100.00
2188;BME280;1100;52.014;8.540;2024-02-16T01:06:05;99700.66;;;10.10;100.00
2188;BME280;1100;52.014;8.540;2024-02-16T01:08:31;99691.44;;;10.14;100.00
2188;BME280;1100;52.014;8.540;2024-02-16T01:10:57;99690.53;;;10.17;100.00
2188;BME280;1100;52.014;8.540;2024-02-16T01:13:22;99698.31;;;10.22;100.00
2188;BME280;1100;52.014;8.540;2024-02-16T01:15:47;99697.50;;;10.34;100.00
2188;BME280;1100;52.014;8.540;2024-02-16T01:18:13;99700.63;;;10.37;100.00
2188;BME280;1100;52.014;8.540;2024-02-16T01:20:38;99699.06;;;10.35;100.00
2188;BME280;1100;52.014;8.540;2024-02-16T01:23:04;99702.53;;;10.40;100.00
2188;BME280;1100;52.014;8.540;2024-02-16T01:25:30;99684.63;;;10.41;100.00
2188;BME280;1100;52.014;8.540;2024-02-16T01:27:56;99691.50;;;10.36;100.00
2188;BME280;1100;52.014;8.540;2024-02-16T01:30:21;99694.19;;;10.40;100.00
2188;BME280;1100;52.014;8.540;2024-02-16T01:32:47;99692.41;;;10.46;100.00
2188;BME280;1100;52.014;8.540;2024-02-16T01:35:12;99686.28;;;10.38;100.00
2188;BME280;1100;52.014;8.540;2024-02-16T01:37:40;99687.75;;;10.30;100.00
2188;BME280;1100;52.014;8.540;2024-02-16T01:40:07;99683.09;;;10.27;100.00
2188;BME280;1100;52.014;8.540;2024-02-16T01:42:34;99686.41;;;10.34;100.00
2188;BME280;1100;52.014;8.540;2024-02-16T01:44:59;99686.97;;;10.29;100.00
2188;BME280;1100;52.014;8.540;2024-02-16T01:47:24;99681.19;;;10.24;100.00
2188;BME280;1100;52.014;8.540;2024-02-16T01:49:49;99682.31;;;10.26;100.00
2188;BME280;1100;52.014;8.540;2024-02-16T01:52:15;99691.41;;;10.27;100.00
2188;BME280;1100;52.014;8.540;2024-02-16T01:54:40;99679.88;;;10.15;100.00
2188;BME280;1100;52.014;8.540;2024-02-16T01:57:06;99680.66;;;10.16;100.00
2188;BME280;1100;52.014;8.540;2024-02-16T01:59:32;99681.09;;;10.14;100.00
2188;BME280;1100;52.014;8.540;2024-02-16T02:01:59;99682.53;;;10.19;100.00
2188;BME280;1100;52.014;8.540;2024-02-16T02:04:25;99679.88;;;10.15;100.00
2188;BME280;1100;52.014;8.540;2024-02-16T02:06:51;99676.09;;;10.09;100.00
2188;BME280;1100;52.014;8.540;2024-02-16T02:09:16;99676.25;;;10.05;100.00
2188;BME280;1100;52.014;8.540;2024-02-16T02:11:41;99669.78;;;10.08;100.00
2188;BME280;1100;52.014;8.540;2024-02-16T02:14:07;99667.56;;;10.16;100.00
2188;BME280;1100;52.014;8.540;2024-02-16T02:16:32;99670.19;;;10.20;100.00
2188;BME280;1100;52.014;8.540;2024-02-16T02:18:58;99661.97;;;10.29;100.00
2188;BME280;1100;52.014;8.540;2024-02-16T02:21:23;99667.03;;;10.44;100.00
2188;BME280;1100;52.014;8.540;2024-02-16T02:23:48;99663.63;;;10.40;100.00
2188;BME280;1100;52.014;8.540;2024-02-16T02:26:14;99652.41;;;10.30;100.00
2188;BME280;1100;52.014;8.540;2024-02-16T02:28:41;99653.97;;;10.18;100.00
2188;BME280;1100;52.014;8.540;2024-02-16T02:31:07;99654.56;;;10.13;100.00
2188;BME280;1100;52.014;8.540;2024-02-16T02:33:34;99645.34;;;10.03;100.00
2188;BME280;1100;52.014;8.540;2024-02-16T02:35:59;99648.91;;;10.04;100.00
2188;BME280;1100;52.014;8.540;2024-02-16T02:38:24;99648.91;;;10.04;100.00
2188;BME280;1100;52.014;8.540;2024-02-16T02:40:51;99640.91;;;10.06;100.00
2188;BME280;1100;52.014;8.540;2024-02-16T02:43:16;99633.47;;;10.03;100.00
2188;BME280;1100;52.014;8.540;2024-02-16T02:45:43;99634.00;;;10.10;100.00
2188;BME280;1100;52.014;8.540;2024-02-16T02:48:09;99632.66;;;10.15;100.00
2188;BME280;1100;52.014;8.540;2024-02-16T02:50:34;99636.88;;;10.20;100.00
2188;BME280;1100;52.014;8.540;2024-02-16T02:52:59;99628.44;;;10.24;100.00
2188;BME280;1100;52.014;8.540;2024-02-16T02:55:25;99620.78;;;10.15;100.00
2188;BME280;1100;52.014;8.540;2024-02-16T02:57:50;99626.25;;;10.05;100.00
2188;BME280;1100;52.014;8.540;2024-02-16T03:00:15;99628.03;;;9.99;100.00
2188;BME280;1100;52.014;8.540;2024-02-16T03:02:41;99616.84;;;9.90;100.00
2188;BME280;1100;52.014;8.540;2024-02-16T03:05:07;99621.41;;;9.83;100.00
2188;BME280;1100;52.014;8.540;2024-02-16T03:07:33;99618.06;;;9.76;100.00
2188;BME280;1100;52.014;8.540;2024-02-16T03:09:59;99624.28;;;9.67;100.00
2188;BME280;1100;52.014;8.540;2024-02-16T03:12:24;99618.75;;;9.54;100.00
2188;BME280;1100;52.014;8.540;2024-02-16T03:14:53;99624.38;;;9.37;100.00
2188;BME280;1100;52.014;8.540;2024-02-16T03:17:18;99616.81;;;9.25;100.00
2188;BME280;1100;52.014;8.540;2024-02-16T03:19:44;99614.59;;;9.19;100.00
2188;BME280;1100;52.014;8.540;2024-02-16T03:22:09;99619.34;;;9.06;100.00
2188;BME280;1100;52.014;8.540;2024-02-16T03:24:34;99612.78;;;9.00;100.00
2188;BME280;1100;52.014;8.540;2024-02-16T03:26:59;99621.75;;;8.91;100.00
2188;BME280;1100;52.014;8.540;2024-02-16T03:29:26;99621.84;;;8.87;100.00
2188;BME280;1100;52.014;8.540;2024-02-16T03:31:51;99619.84;;;8.88;100.00
2188;BME280;1100;52.014;8.540;2024-02-16T03:34:16;99616.34;;;9.00;100.00
2188;BME280;1100;52.014;8.540;2024-02-16T03:36:42;99611.91;;;9.03;100.00
2188;BME280;1100;52.014;8.540;2024-02-16T03:39:07;99609.66;;;8.97;100.00
2188;BME280;1100;52.014;8.540;2024-02-16T03:41:33;99605.03;;;9.07;100.00
2188;BME280;1100;52.014;8.540;2024-02-16T03:43:59;99606.94;;;9.10;100.00
2188;BME280;1100;52.014;8.540;2024-02-16T03:46:25;99607.97;;;9.30;100.00
2188;BME280;1100;52.014;8.540;2024-02-16T03:48:50;99606.63;;;9.34;100.00
2188;BME280;1100;52.014;8.540;2024-02-16T03:51:16;99612.75;;;9.42;100.00
2188;BME280;1100;52.014;8.540;2024-02-16T03:53:41;99601.84;;;9.48;100.00
2188;BME280;1100;52.014;8.540;2024-02-16T03:56:06;99607.84;;;9.59;100.00
2188;BME280;1100;52.014;8.540;2024-02-16T03:58:32;99602.75;;;9.71;100.00
2188;BME280;1100;52.014;8.540;2024-02-16T04:00:58;99600.03;;;9.93;100.00
2188;BME280;1100;52.014;8.540;2024-02-16T04:03:23;99597.59;;;10.08;100.00
2188;BME280;1100;52.014;8.540;2024-02-16T04:05:48;99601.88;;;10.22;100.00
2188;BME280;1100;52.014;8.540;2024-02-16T04:08:14;99609.16;;;10.42;100.00
2188;BME280;1100;52.014;8.540;2024-02-16T04:10:40;99602.91;;;10.51;100.00
2188;BME280;1100;52.014;8.540;2024-02-16T04:13:05;99605.13;;;10.56;100.00
2188;BME280;1100;52.014;8.540;2024-02-16T04:15:30;99614.44;;;10.63;100.00
2188;BME280;1100;52.014;8.540;2024-02-16T04:17:56;99610.50;;;10.73;100.00
2188;BME280;1100;52.014;8.540;2024-02-16T04:20:21;99613.03;;;10.80;100.00
2188;BME280;1100;52.014;8.540;2024-02-16T04:22:47;99611.41;;;10.92;100.00
2188;BME280;1100;52.014;8.540;2024-02-16T04:25:12;99611.91;;;11.00;100.00
2188;BME280;1100;52.014;8.540;2024-02-16T04:27:38;99614.44;;;11.07;100.00
2188;BME280;1100;52.014;8.540;2024-02-16T04:30:04;99611.00;;;11.03;100.00
2188;BME280;1100;52.014;8.540;2024-02-16T04:32:31;99618.72;;;10.99;100.00
2188;BME280;1100;52.014;8.540;2024-02-16T04:34:56;99615.19;;;11.08;100.00
2188;BME280;1100;52.014;8.540;2024-02-16T04:37:23;99624.19;;;11.12;100.00
2188;BME280;1100;52.014;8.540;2024-02-16T04:39:48;99617.72;;;11.15;100.00
2188;BME280;1100;52.014;8.540;2024-02-16T04:42:14;99614.16;;;11.15;100.00
2188;BME280;1100;52.014;8.540;2024-02-16T04:44:39;99608.94;;;11.17;100.00
2188;BME280;1100;52.014;8.540;2024-02-16T04:47:05;99614.16;;;11.15;100.00
2188;BME280;1100;52.014;8.540;2024-02-16T04:49:30;99615.41;;;11.14;100.00
2188;BME280;1100;52.014;8.540;2024-02-16T04:51:55;99613.25;;;11.18;100.00
2188;BME280;1100;52.014;8.540;2024-02-16T04:54:21;99615.91;;;11.21;100.00
2188;BME280;1100;52.014;8.540;2024-02-16T04:56:46;99612.91;;;11.16;100.00
2188;BME280;1100;52.014;8.540;2024-02-16T04:59:11;99620.47;;;11.06;100.00
2188;BME280;1100;52.014;8.540;2024-02-16T05:01:37;99612.81;;;10.97;100.00
2188;BME280;1100;52.014;8.540;2024-02-16T05:04:02;99618.38;;;10.97;100.00
2188;BME280;1100;52.014;8.540;2024-02-16T05:06:28;99613.28;;;10.95;100.00
2188;BME280;1100;52.014;8.540;2024-02-16T05:08:53;99621.16;;;10.97;100.00
2188;BME280;1100;52.014;8.540;2024-02-16T05:11:19;99619.56;;;10.87;100.00
2188;BME280;1100;52.014;8.540;2024-02-16T05:13:44;99609.78;;;10.82;100.00
2188;BME280;1100;52.014;8.540;2024-02-16T05:16:10;99602.03;;;10.77;100.00
2188;BME280;1100;52.014;8.540;2024-02-16T05:18:36;99597.69;;;10.76;100.00
2188;BME280;1100;52.014;8.540;2024-02-16T05:21:02;99603.38;;;10.72;100.00
2188;BME280;1100;52.014;8.540;2024-02-16T05:23:27;99598.50;;;10.76;100.00
2188;BME280;1100;52.014;8.540;2024-02-16T05:25:53;99598.50;;;10.76;100.00
2188;BME280;1100;52.014;8.540;2024-02-16T05:28:19;99603.59;;;10.78;100.00
2188;BME280;1100;52.014;8.540;2024-02-16T05:30:45;99608.94;;;10.72;100.00
2188;BME280;1100;52.014;8.540;2024-02-16T05:33:10;99605.19;;;10.66;100.00
2188;BME280;1100;52.014;8.540;2024-02-16T05:35:36;99604.28;;;10.69;100.00
2188;BME280;1100;52.014;8.540;2024-02-16T05:38:05;99591.69;;;10.77;100.00
2188;BME280;1100;52.014;8.540;2024-02-16T05:40:32;99576.25;;;10.76;100.00
2188;BME280;1100;52.014;8.540;2024-02-16T05:43:09;99574.38;;;10.73;100.00
2188;BME280;1100;52.014;8.540;2024-02-16T05:45:34;99573.41;;;10.67;100.00
2188;BME280;1100;52.014;8.540;2024-02-16T05:48:00;99584.38;;;10.70;100.00
2188;BME280;1100;52.014;8.540;2024-02-16T05:50:26;99575.91;;;10.74;100.00
2188;BME280;1100;52.014;8.540;2024-02-16T05:52:51;99584.59;;;10.76;100.00
2188;BME280;1100;52.014;8.540;2024-02-16T05:55:17;99588.28;;;10.73;100.00
2188;BME280;1100;52.014;8.540;2024-02-16T05:57:44;99581.66;;;10.57;100.00
2188;BME280;1100;52.014;8.540;2024-02-16T06:00:09;99590.16;;;10.41;100.00
2188;BME280;1100;52.014;8.540;2024-02-16T06:02:36;99593.63;;;10.32;100.00
2188;BME280;1100;52.014;8.540;2024-02-16T06:05:02;99583.63;;;10.34;100.00
2188;BME280;1100;52.014;8.540;2024-02-16T06:07:29;99581.41;;;10.29;100.00
2188;BME280;1100;52.014;8.540;2024-02-16T06:09:55;99584.88;;;10.56;100.00
2188;BME280;1100;52.014;8.540;2024-02-16T06:12:21;99586.44;;;10.57;100.00
2188;BME280;1100;52.014;8.540;2024-02-16T06:14:46;99586.84;;;10.46;100.00
2188;BME280;1100;52.014;8.540;2024-02-16T06:17:13;99583.03;;;10.40;100.00
2188;BME280;1100;52.014;8.540;2024-02-16T06:19:40;99596.94;;;10.40;100.00
2188;BME280;1100;52.014;8.540;2024-02-16T06:22:06;99592.03;;;10.44;100.00
2188;BME280;1100;52.014;8.540;2024-02-16T06:24:33;99600.34;;;10.44;100.00
2188;BME280;1100;52.014;8.540;2024-02-16T06:26:58;99598.16;;;10.39;100.00
2188;BME280;1100;52.014;8.540;2024-02-16T06:29:24;99599.56;;;10.56;100.00
2188;BME280;1100;52.014;8.540;2024-02-16T06:31:52;99598.28;;;10.70;100.00
2188;BME280;1100;52.014;8.540;2024-02-16T06:34:18;99601.25;;;10.76;100.00
2188;BME280;1100;52.014;8.540;2024-02-16T06:36:43;99607.28;;;10.75;100.00
2188;BME280;1100;52.014;8.540;2024-02-16T06:39:09;99609.28;;;10.74;100.00
2188;BME280;1100;52.014;8.540;2024-02-16T06:41:35;99606.63;;;10.70;100.00
2188;BME280;1100;52.014;8.540;2024-02-16T06:44:00;99604.94;;;10.73;100.00
2188;BME280;1100;52.014;8.540;2024-02-16T06:46:26;99603.31;;;10.85;100.00
2188;BME280;1100;52.014;8.540;2024-02-16T06:48:53;99604.16;;;10.95;100.00
2188;BME280;1100;52.014;8.540;2024-02-16T06:51:22;99604.00;;;10.99;100.00
2188;BME280;1100;52.014;8.540;2024-02-16T06:53:47;99612.56;;;11.04;100.00
2188;BME280;1100;52.014;8.540;2024-02-16T06:56:13;99616.31;;;11.11;100.00
2188;BME280;1100;52.014;8.540;2024-02-16T06:58:41;99611.25;;;11.18;100.00
2188;BME280;1100;52.014;8.540;2024-02-16T07:01:07;99606.31;;;11.23;100.00
2188;BME280;1100;52.014;8.540;2024-02-16T07:03:34;99622.22;;;11.22;100.00
2188;BME280;1100;52.014;8.540;2024-02-16T07:06:02;99617.31;;;11.26;100.00
2188;BME280;1100;52.014;8.540;2024-02-16T07:08:28;99621.38;;;11.34;100.00
2188;BME280;1100;52.014;8.540;2024-02-16T07:10:53;99637.47;;;11.40;100.00
2188;BME280;1100;52.014;8.540;2024-02-16T07:13:19;99628.84;;;11.47;100.00
2188;BME280;1100;52.014;8.540;2024-02-16T07:15:44;99629.03;;;11.53;100.00
2188;BME280;1100;52.014;8.540;2024-02-16T07:18:10;99628.88;;;11.56;100.00
2188;BME280;1100;52.014;8.540;2024-02-16T07:20:35;99641.88;;;11.59;100.00
2188;BME280;1100;52.014;8.540;2024-02-16T07:23:02;99641.16;;;11.68;100.00
2188;BME280;1100;52.014;8.540;2024-02-16T07:25:27;99648.75;;;11.77;100.00
2188;BME280;1100;52.014;8.540;2024-02-16T07:27:53;99651.88;;;11.79;100.00
2188;BME280;1100;52.014;8.540;2024-02-16T07:30:18;99654.00;;;11.75;100.00
2188;BME280;1100;52.014;8.540;2024-02-16T07:32:48;99655.25;;;11.74;100.00
2188;BME280;1100;52.014;8.540;2024-02-16T07:35:15;99654.19;;;11.81;100.00
2188;BME280;1100;52.014;8.540;2024-02-16T07:37:40;99647.25;;;11.86;100.00
2188;BME280;1100;52.014;8.540;2024-02-16T07:40:07;99651.75;;;11.92;100.00
2188;BME280;1100;52.014;8.540;2024-02-16T07:42:37;99651.00;;;11.92;100.00
2188;BME280;1100;52.014;8.540;2024-02-16T07:45:03;99648.22;;;11.92;100.00
2188;BME280;1100;52.014;8.540;2024-02-16T07:47:31;99639.38;;;11.93;100.00
2188;BME280;1100;52.014;8.540;2024-02-16T07:49:56;99630.56;;;11.95;100.00
2188;BME280;1100;52.014;8.540;2024-02-16T07:52:21;99632.13;;;11.96;100.00
2188;BME280;1100;52.014;8.540;2024-02-16T07:54:47;99628.72;;;12.01;100.00
2188;BME280;1100;52.014;8.540;2024-02-16T07:57:12;99624.41;;;12.00;100.00
2188;BME280;1100;52.014;8.540;2024-02-16T07:59:37;99629.81;;;12.04;100.00
2188;BME280;1100;52.014;8.540;2024-02-16T08:02:03;99623.66;;;12.09;100.00
2188;BME280;1100;52.014;8.540;2024-02-16T08:04:28;99620.09;;;12.08;100.00
2188;BME280;1100;52.014;8.540;2024-02-16T08:06:53;99628.78;;;12.11;100.00
2188;BME280;1100;52.014;8.540;2024-02-16T08:09:19;99635.13;;;12.11;100.00
2188;BME280;1100;52.014;8.540;2024-02-16T08:11:44;99639.94;;;12.11;100.00
2188;BME280;1100;52.014;8.540;2024-02-16T08:14:09;99640.88;;;12.17;100.00
2188;BME280;1100;52.014;8.540;2024-02-16T08:16:35;99632.38;;;12.20;100.00
2188;BME280;1100;52.014;8.540;2024-02-16T08:19:00;99638.09;;;12.26;100.00
2188;BME280;1100;52.014;8.540;2024-02-16T08:21:25;99642.28;;;12.31;100.00
2188;BME280;1100;52.014;8.540;2024-02-16T08:23:51;99652.97;;;12.32;100.00
2188;BME280;1100;52.014;8.540;2024-02-16T08:26:16;99641.19;;;12.28;100.00
2188;BME280;1100;52.014;8.540;2024-02-16T08:28:45;99648.63;;;12.31;100.00
2188;BME280;1100;52.014;8.540;2024-02-16T08:31:15;99650.78;;;12.37;100.00
2188;BME280;1100;52.014;8.540;2024-02-16T08:33:40;99659.16;;;12.37;100.00
2188;BME280;1100;52.014;8.540;2024-02-16T08:36:07;99659.16;;;12.37;100.00
2188;BME280;1100;52.014;8.540;2024-02-16T08:38:32;99663.19;;;12.45;100.00
2188;BME280;1100;52.014;8.540;2024-02-16T08:40:57;99669.38;;;12.49;100.00
2188;BME280;1100;52.014;8.540;2024-02-16T08:43:25;99666.31;;;12.56;100.00
2188;BME280;1100;52.014;8.540;2024-02-16T08:45:50;99670.03;;;12.63;100.00
2188;BME280;1100;52.014;8.540;2024-02-16T08:48:16;99672.03;;;12.62;100.00
2188;BME280;1100;52.014;8.540;2024-02-16T08:50:41;99677.94;;;12.64;100.00
2188;BME280;1100;52.014;8.540;2024-02-16T08:53:06;99679.31;;;12.69;100.00
2188;BME280;1100;52.014;8.540;2024-02-16T08:55:33;99693.75;;;12.67;100.00
2188;BME280;1100;52.014;8.540;2024-02-16T08:57:58;99695.59;;;12.70;100.00
2188;BME280;1100;52.014;8.540;2024-02-16T09:00:23;99697.47;;;12.74;100.00
2188;BME280;1100;52.014;8.540;2024-02-16T09:02:52;99697.91;;;12.72;100.00
2188;BME280;1100;52.014;8.540;2024-02-16T09:05:19;99703.66;;;12.68;100.00
2188;BME280;1100;52.014;8.540;2024-02-16T09:07:44;99698.22;;;12.65;100.00
2188;BME280;1100;52.014;8.540;2024-02-16T09:10:10;99712.47;;;12.67;100.00
2188;BME280;1100;52.014;8.540;2024-02-16T09:12:35;99707.97;;;12.69;100.00
2188;BME280;1100;52.014;8.540;2024-02-16T09:15:00;99700.72;;;12.72;100.00
2188;BME280;1100;52.014;8.540;2024-02-16T09:17:26;99713.56;;;12.79;100.00
2188;BME280;1100;52.014;8.540;2024-02-16T09:19:51;99710.16;;;12.84;100.00
2188;BME280;1100;52.014;8.540;2024-02-16T09:22:17;99706.28;;;12.91;100.00
2188;BME280;1100;52.014;8.540;2024-02-16T09:24:42;99722.72;;;12.98;100.00
2188;BME280;1100;52.014;8.540;2024-02-16T09:27:12;99716.81;;;13.05;100.00
2188;BME280;1100;52.014;8.540;2024-02-16T09:29:37;99725.81;;;13.10;100.00
2188;BME280;1100;52.014;8.540;2024-02-16T09:32:03;99719.13;;;13.16;100.00
2188;BME280;1100;52.014;8.540;2024-02-16T09:34:29;99731.38;;;13.19;100.00
2188;BME280;1100;52.014;8.540;2024-02-16T09:36:54;99722.84;;;13.23;100.00
2188;BME280;1100;52.014;8.540;2024-02-16T09:39:19;99727.47;;;13.26;100.00
2188;BME280;1100;52.014;8.540;2024-02-16T09:41:49;99729.34;;;13.29;100.00
2188;BME280;1100;52.014;8.540;2024-02-16T09:44:16;99733.22;;;13.31;100.00
2188;BME280;1100;52.014;8.540;2024-02-16T09:46:41;99743.00;;;13.36;100.00
2188;BME280;1100;52.014;8.540;2024-02-16T09:49:07;99742.06;;;13.39;100.00
2188;BME280;1100;52.014;8.540;2024-02-16T09:51:36;99740.53;;;13.38;100.00
2188;BME280;1100;52.014;8.540;2024-02-16T09:54:02;99738.94;;;13.37;100.00
2188;BME280;1100;52.014;8.540;2024-02-16T09:56:28;99747.31;;;13.37;100.00
2188;BME280;1100;52.014;8.540;2024-02-16T09:58:54;99746.88;;;13.39;100.00
2188;BME280;1100;52.014;8.540;2024-02-16T10:01:23;99748.91;;;13.38;100.00
2188;BME280;1100;52.014;8.540;2024-02-16T10:03:49;99745.00;;;13.36;100.00
2188;BME280;1100;52.014;8.540;2024-02-16T10:06:16;99751.97;;;13.40;100.00
2188;BME280;1100;52.014;8.540;2024-02-16T10:08:54;99749.81;;;13.44;100.00
2188;BME280;1100;52.014;8.540;2024-02-16T10:11:21;99749.16;;;13.50;100.00
2188;BME280;1100;52.014;8.540;2024-02-16T10:13:59;99761.59;;;13.58;100.00
2188;BME280;1100;52.014;8.540;2024-02-16T10:16:26;99767.28;;;13.73;100.00
2188;BME280;1100;52.014;8.540;2024-02-16T10:18:54;99767.19;;;14.11;100.00
2188;BME280;1100;52.014;8.540;2024-02-16T10:21:27;99772.41;;;14.52;100.00
2188;BME280;1100;52.014;8.540;2024-02-16T10:24:04;99779.72;;;14.83;100.00
2188;BME280;1100;52.014;8.540;2024-02-16T10:26:31;99783.41;;;15.14;100.00
2188;BME280;1100;52.014;8.540;2024-02-16T10:28:57;99782.28;;;14.96;100.00
2188;BME280;1100;52.014;8.540;2024-02-16T10:31:24;99785.16;;;14.53;100.00
2188;BME280;1100;52.014;8.540;2024-02-16T10:34:02;99786.28;;;14.46;100.00
2188;BME280;1100;52.014;8.540;2024-02-16T10:36:34;99802.81;;;14.35;100.00
2188;BME280;1100;52.014;8.540;2024-02-16T10:39:01;99795.72;;;14.24;100.00
2188;BME280;1100;52.014;8.540;2024-02-16T10:41:35;99799.72;;;14.91;100.00
2188;BME280;1100;52.014;8.540;2024-02-16T10:44:03;99804.75;;;14.77;100.00
2188;BME280;1100;52.014;8.540;2024-02-16T10:46:30;99810.84;;;14.42;100.00
2188;BME280;1100;52.014;8.540;2024-02-16T10:48:55;99810.63;;;14.21;100.00
2188;BME280;1100;52.014;8.540;2024-02-16T10:51:30;99822.13;;;14.14;100.00
2188;BME280;1100;52.014;8.540;2024-02-16T10:53:58;99815.81;;;14.04;100.00
2188;BME280;1100;52.014;8.540;2024-02-16T10:56:35;99823.75;;;13.96;100.00
2188;BME280;1100;52.014;8.540;2024-02-16T10:59:05;99803.28;;;13.90;100.00
2188;BME280;1100;52.014;8.540;2024-02-16T11:01:43;99801.56;;;13.92;100.00
2188;BME280;1100;52.014;8.540;2024-02-16T11:04:15;99805.91;;;13.84;100.00
2188;BME280;1100;52.014;8.540;2024-02-16T11:09:23;99816.94;;;13.78;100.00
2188;BME280;1100;52.014;8.540;2024-02-16T11:11:52;99811.06;;;13.76;100.00
2188;BME280;1100;52.014;8.540;2024-02-16T11:14:18;99813.50;;;14.02;100.00
2188;BME280;1100;52.014;8.540;2024-02-16T11:16:45;99814.50;;;14.24;100.00
2188;BME280;1100;52.014;8.540;2024-02-16T11:19:10;99816.22;;;14.21;100.00
2188;BME280;1100;52.014;8.540;2024-02-16T11:21:35;99814.09;;;14.06;100.00
2188;BME280;1100;52.014;8.540;2024-02-16T11:24:06;99819.69;;;13.97;100.00
2188;BME280;1100;52.014;8.540;2024-02-16T11:26:42;99812.28;;;13.85;100.00
2188;BME280;1100;52.014;8.540;2024-02-16T11:29:08;99825.19;;;13.82;100.00
2188;BME280;1100;52.014;8.540;2024-02-16T11:31:35;99828.59;;;13.77;100.00
2188;BME280;1100;52.014;8.540;2024-02-16T11:34:00;99828.75;;;13.73;100.00
2188;BME280;1100;52.014;8.540;2024-02-16T11:36:26;99824.41;;;13.72;100.00
2188;BME280;1100;52.014;8.540;2024-02-16T11:38:52;99831.84;;;13.75;100.00
2188;BME280;1100;52.014;8.540;2024-02-16T11:41:17;99830.31;;;13.74;100.00
2188;BME280;1100;52.014;8.540;2024-02-16T11:43:43;99824.41;;;13.72;100.00
2188;BME280;1100;52.014;8.540;2024-02-16T11:46:12;99835.44;;;13.66;100.00
2188;BME280;1100;52.014;8.540;2024-02-16T11:48:38;99835.44;;;13.66;100.00
2188;BME280;1100;52.014;8.540;2024-02-16T11:51:04;99845.50;;;13.64;100.00
2188;BME280;1100;52.014;8.540;2024-02-16T11:53:30;99837.13;;;13.64;100.00
2188;BME280;1100;52.014;8.540;2024-02-16T11:55:56;99842.25;;;13.65;100.00
2188;BME280;1100;52.014;8.540;2024-02-16T11:58:22;99842.13;;;13.60;100.00
2188;BME280;1100;52.014;8.540;2024-02-16T12:00:49;99850.81;;;13.62;100.00
2188;BME280;1100;52.014;8.540;2024-02-16T12:03:22;99834.66;;;13.66;100.00
2188;BME280;1100;52.014;8.540;2024-02-16T12:05:57;99834.97;;;13.68;100.00
2188;BME280;1100;52.014;8.540;2024-02-16T12:08:24;99841.78;;;13.76;100.00
2188;BME280;1100;52.014;8.540;2024-02-16T12:10:56;99842.88;;;13.79;100.00
2188;BME280;1100;52.014;8.540;2024-02-16T12:13:21;99843.16;;;13.81;100.00
2188;BME280;1100;52.014;8.540;2024-02-16T12:15:51;99848.75;;;13.81;100.00
2188;BME280;1100;52.014;8.540;2024-02-16T12:18:26;99835.56;;;13.81;100.00
2188;BME280;1100;52.014;8.540;2024-02-16T12:21:03;99848.94;;;13.77;100.00
2188;BME280;1100;52.014;8.540;2024-02-16T12:23:30;99847.38;;;13.76;100.00
2188;BME280;1100;52.014;8.540;2024-02-16T12:25:58;99839.78;;;13.77;100.00
2188;BME280;1100;52.014;8.540;2024-02-16T12:28:25;99851.09;;;13.73;100.00
2188;BME280;1100;52.014;8.540;2024-02-16T12:30:53;99845.69;;;13.69;100.00
2188;BME280;1100;52.014;8.540;2024-02-16T12:33:18;99850.16;;;13.67;100.00
2188;BME280;1100;52.014;8.540;2024-02-16T12:35:44;99847.38;;;13.67;100.00
2188;BME280;1100;52.014;8.540;2024-02-16T12:38:11;99857.31;;;13.68;100.00
2188;BME280;1100;52.014;8.540;2024-02-16T12:40:36;99861.50;;;13.63;100.00
2188;BME280;1100;52.014;8.540;2024-02-16T12:43:02;99860.25;;;13.64;100.00
2188;BME280;1100;52.014;8.540;2024-02-16T12:45:27;99858.41;;;13.61;100.00
2188;BME280;1100;52.014;8.540;2024-02-16T12:47:52;99854.53;;;13.58;100.00
2188;BME280;1100;52.014;8.540;2024-02-16T12:50:18;99861.81;;;13.56;100.00
2188;BME280;1100;52.014;8.540;2024-02-16T12:52:43;99864.00;;;13.52;100.00
2188;BME280;1100;52.014;8.540;2024-02-16T12:55:09;99853.72;;;13.49;100.00
2188;BME280;1100;52.014;8.540;2024-02-16T12:57:35;99862.56;;;13.47;100.00
2188;BME280;1100;52.014;8.540;2024-02-16T13:00:01;99861.03;;;13.46;100.00
2188;BME280;1100;52.014;8.540;2024-02-16T13:02:28;99853.88;;;13.45;100.00
2188;BME280;1100;52.014;8.540;2024-02-16T13:04:54;99870.00;;;13.41;100.00
2188;BME280;1100;52.014;8.540;2024-02-16T13:07:19;99861.50;;;13.35;100.00
2188;BME280;1100;52.014;8.540;2024-02-16T13:09:45;99861.94;;;13.33;100.00